sensor_id;sensor_type;location;lat;lon;timestamp;P1;durP1;ratioP1;P2;durP2;ratioP2
21517;SDS011;61765;45.794;24.150;2022-11-15T00:07:04;39.85;;;22.58;;
21517;SDS011;61765;45.794;24.150;2022-11-15T00:16:24;35.97;;;21.50;;
21517;SDS011;61765;45.794;24.150;2022-11-15T00:25:14;43.05;;;23.25;;
21517;SDS011;61765;45.794;24.150;2022-11-15T00:42:05;37.42;;;21.30;;
21517;SDS011;61765;45.794;24.150;2022-11-15T00:50:32;38.47;;;21.70;;
21517;SDS011;61765;45.794;24.150;2022-11-15T00:58:56;34.47;;;20.35;;
21517;SDS011;61765;45.794;24.150;2022-11-15T01:07:22;35.83;;;20.80;;
21517;SDS011;61765;45.794;24.150;2022-11-15T01:15:46;34.28;;;21.08;;
21517;SDS011;61765;45.794;24.150;2022-11-15T01:24:14;40.22;;;23.63;;
21517;SDS011;61765;45.794;24.150;2022-11-15T01:32:37;37.63;;;22.50;;
21517;SDS011;61765;45.794;24.150;2022-11-15T01:49:29;42.05;;;23.98;;
21517;SDS011;61765;45.794;24.150;2022-11-15T01:57:59;37.28;;;21.65;;
21517;SDS011;61765;45.794;24.150;2022-11-15T02:06:26;36.92;;;21.52;;
21517;SDS011;61765;45.794;24.150;2022-11-15T02:14:53;39.83;;;21.52;;
21517;SDS011;61765;45.794;24.150;2022-11-15T02:32:23;33.33;;;19.30;;
21517;SDS011;61765;45.794;24.150;2022-11-15T02:40:57;35.25;;;21.10;;
21517;SDS011;61765;45.794;24.150;2022-11-15T02:49:28;39.38;;;21.42;;
21517;SDS011;61765;45.794;24.150;2022-11-15T02:57:59;31.42;;;20.00;;
21517;SDS011;61765;45.794;24.150;2022-11-15T03:06:38;34.13;;;19.50;;
21517;SDS011;61765;45.794;24.150;2022-11-15T03:15:09;32.45;;;18.98;;
21517;SDS011;61765;45.794;24.150;2022-11-15T03:23:40;31.42;;;19.08;;
21517;SDS011;61765;45.794;24.150;2022-11-15T03:32:05;31.98;;;17.90;;
21517;SDS011;61765;45.794;24.150;2022-11-15T03:40:36;30.85;;;18.48;;
21517;SDS011;61765;45.794;24.150;2022-11-15T03:49:04;30.23;;;18.48;;
21517;SDS011;61765;45.794;24.150;2022-11-15T03:57:34;30.83;;;19.17;;
21517;SDS011;61765;45.794;24.150;2022-11-15T04:05:58;32.42;;;19.13;;
21517;SDS011;61765;45.794;24.150;2022-11-15T04:14:24;28.60;;;18.15;;
21517;SDS011;61765;45.794;24.150;2022-11-15T04:22:48;32.25;;;19.27;;
21517;SDS011;61765;45.794;24.150;2022-11-15T04:31:29;29.38;;;17.15;;
21517;SDS011;61765;45.794;24.150;2022-11-15T04:39:53;32.47;;;18.58;;
21517;SDS011;61765;45.794;24.150;2022-11-15T04:48:19;30.77;;;17.00;;
21517;SDS011;61765;45.794;24.150;2022-11-15T04:56:45;28.10;;;16.55;;
21517;SDS011;61765;45.794;24.150;2022-11-15T05:05:11;28.48;;;17.17;;
21517;SDS011;61765;45.794;24.150;2022-11-15T05:13:34;29.55;;;18.10;;
21517;SDS011;61765;45.794;24.150;2022-11-15T05:22:01;26.08;;;16.13;;
21517;SDS011;61765;45.794;24.150;2022-11-15T05:30:25;26.58;;;15.50;;
21517;SDS011;61765;45.794;24.150;2022-11-15T05:38:52;26.77;;;16.23;;
21517;SDS011;61765;45.794;24.150;2022-11-15T05:47:17;24.85;;;16.83;;
21517;SDS011;61765;45.794;24.150;2022-11-15T05:55:47;26.92;;;15.95;;
21517;SDS011;61765;45.794;24.150;2022-11-15T06:04:14;23.90;;;16.33;;
21517;SDS011;61765;45.794;24.150;2022-11-15T06:12:41;34.60;;;21.48;;
21517;SDS011;61765;45.794;24.150;2022-11-15T06:21:05;33.20;;;19.13;;
21517;SDS011;61765;45.794;24.150;2022-11-15T06:29:32;29.90;;;18.35;;
21517;SDS011;61765;45.794;24.150;2022-11-15T06:37:59;31.08;;;19.27;;
21517;SDS011;61765;45.794;24.150;2022-11-15T06:46:28;31.20;;;19.52;;
21517;SDS011;61765;45.794;24.150;2022-11-15T06:54:53;33.53;;;19.80;;
21517;SDS011;61765;45.794;24.150;2022-11-15T07:11:43;33.65;;;19.60;;
21517;SDS011;61765;45.794;24.150;2022-11-15T07:20:10;37.35;;;21.13;;
21517;SDS011;61765;45.794;24.150;2022-11-15T07:28:35;35.72;;;20.27;;
21517;SDS011;61765;45.794;24.150;2022-11-15T07:37:02;34.13;;;19.10;;
21517;SDS011;61765;45.794;24.150;2022-11-15T07:45:26;29.15;;;17.88;;
21517;SDS011;61765;45.794;24.150;2022-11-15T07:53:52;25.65;;;17.25;;
21517;SDS011;61765;45.794;24.150;2022-11-15T08:02:17;27.13;;;16.45;;
21517;SDS011;61765;45.794;24.150;2022-11-15T08:10:49;26.25;;;16.38;;
21517;SDS011;61765;45.794;24.150;2022-11-15T08:19:13;24.35;;;15.43;;
21517;SDS011;61765;45.794;24.150;2022-11-15T08:27:39;22.05;;;15.18;;
21517;SDS011;61765;45.794;24.150;2022-11-15T08:36:04;21.02;;;15.10;;
21517;SDS011;61765;45.794;24.150;2022-11-15T08:44:31;23.23;;;15.57;;
21517;SDS011;61765;45.794;24.150;2022-11-15T08:52:55;23.42;;;15.85;;
21517;SDS011;61765;45.794;24.150;2022-11-15T09:01:22;22.55;;;15.10;;
21517;SDS011;61765;45.794;24.150;2022-11-15T09:09:46;21.48;;;15.43;;
21517;SDS011;61765;45.794;24.150;2022-11-15T09:18:13;23.23;;;15.20;;
21517;SDS011;61765;45.794;24.150;2022-11-15T09:26:37;19.27;;;15.73;;
21517;SDS011;61765;45.794;24.150;2022-11-15T09:35:04;20.08;;;14.70;;
21517;SDS011;61765;45.794;24.150;2022-11-15T09:43:30;19.77;;;16.10;;
21517;SDS011;61765;45.794;24.150;2022-11-15T09:52:04;24.13;;;15.95;;
21517;SDS011;61765;45.794;24.150;2022-11-15T10:00:20;25.92;;;16.83;;
21517;SDS011;61765;45.794;24.150;2022-11-15T10:08:53;23.35;;;16.58;;
21517;SDS011;61765;45.794;24.150;2022-11-15T10:17:06;26.60;;;17.88;;
21517;SDS011;61765;45.794;24.150;2022-11-15T10:25:33;21.92;;;15.35;;
21517;SDS011;61765;45.794;24.150;2022-11-15T10:33:40;28.35;;;17.10;;
21517;SDS011;61765;45.794;24.150;2022-11-15T10:41:48;27.20;;;17.25;;
21517;SDS011;61765;45.794;24.150;2022-11-15T10:50:04;28.58;;;18.77;;
21517;SDS011;61765;45.794;24.150;2022-11-15T10:58:22;27.30;;;18.05;;
21517;SDS011;61765;45.794;24.150;2022-11-15T11:06:45;31.10;;;18.10;;
21517;SDS011;61765;45.794;24.150;2022-11-15T11:14:54;29.50;;;17.92;;
21517;SDS011;61765;45.794;24.150;2022-11-15T11:23:06;29.35;;;17.83;;
21517;SDS011;61765;45.794;24.150;2022-11-15T11:31:28;33.17;;;18.33;;
21517;SDS011;61765;45.794;24.150;2022-11-15T11:39:40;32.95;;;18.13;;
21517;SDS011;61765;45.794;24.150;2022-11-15T11:47:57;37.13;;;21.70;;
21517;SDS011;61765;45.794;24.150;2022-11-15T11:56:15;29.17;;;17.13;;
21517;SDS011;61765;45.794;24.150;2022-11-15T12:04:30;28.02;;;16.55;;
21517;SDS011;61765;45.794;24.150;2022-11-15T12:12:43;26.35;;;16.73;;
21517;SDS011;61765;45.794;24.150;2022-11-15T12:20:56;27.20;;;15.52;;
21517;SDS011;61765;45.794;24.150;2022-11-15T12:29:10;24.77;;;14.68;;
21517;SDS011;61765;45.794;24.150;2022-11-15T12:46:10;24.23;;;14.73;;
21517;SDS011;61765;45.794;24.150;2022-11-15T13:03:19;26.83;;;16.50;;
21517;SDS011;61765;45.794;24.150;2022-11-15T13:20:20;31.08;;;16.85;;
21517;SDS011;61765;45.794;24.150;2022-11-15T13:28:32;28.20;;;15.93;;
21517;SDS011;61765;45.794;24.150;2022-11-15T13:36:42;26.23;;;15.90;;
21517;SDS011;61765;45.794;24.150;2022-11-15T13:44:55;25.23;;;15.50;;
21517;SDS011;61765;45.794;24.150;2022-11-15T13:53:04;28.83;;;14.50;;
21517;SDS011;61765;45.794;24.150;2022-11-15T14:01:14;25.38;;;14.80;;
21517;SDS011;61765;45.794;24.150;2022-11-15T14:09:31;29.77;;;17.23;;
21517;SDS011;61765;45.794;24.150;2022-11-15T14:17:38;29.45;;;13.63;;
21517;SDS011;61765;45.794;24.150;2022-11-15T14:25:54;25.35;;;13.05;;
21517;SDS011;61765;45.794;24.150;2022-11-15T14:34:01;24.67;;;14.00;;
21517;SDS011;61765;45.794;24.150;2022-11-15T14:42:10;28.45;;;14.32;;
21517;SDS011;61765;45.794;24.150;2022-11-15T14:50:16;26.55;;;14.77;;
21517;SDS011;61765;45.794;24.150;2022-11-15T14:58:26;30.60;;;16.15;;
21517;SDS011;61765;45.794;24.150;2022-11-15T15:06:32;36.65;;;20.25;;
21517;SDS011;61765;45.794;24.150;2022-11-15T15:14:40;32.60;;;16.75;;
21517;SDS011;61765;45.794;24.150;2022-11-15T15:22:45;35.28;;;22.58;;
21517;SDS011;61765;45.794;24.150;2022-11-15T15:30:53;34.00;;;22.38;;
21517;SDS011;61765;45.794;24.150;2022-11-15T15:38:59;41.28;;;25.00;;
21517;SDS011;61765;45.794;24.150;2022-11-15T15:47:09;35.75;;;22.48;;
21517;SDS011;61765;45.794;24.150;2022-11-15T15:55:16;34.85;;;22.27;;
21517;SDS011;61765;45.794;24.150;2022-11-15T16:03:24;33.88;;;20.80;;
21517;SDS011;61765;45.794;24.150;2022-11-15T16:11:29;31.85;;;21.30;;
21517;SDS011;61765;45.794;24.150;2022-11-15T16:19:37;37.97;;;23.50;;
21517;SDS011;61765;45.794;24.150;2022-11-15T16:27:43;43.80;;;26.58;;
21517;SDS011;61765;45.794;24.150;2022-11-15T16:35:51;46.70;;;29.50;;
21517;SDS011;61765;45.794;24.150;2022-11-15T16:43:57;45.53;;;29.10;;
21517;SDS011;61765;45.794;24.150;2022-11-15T16:52:05;43.13;;;26.70;;
21517;SDS011;61765;45.794;24.150;2022-11-15T17:00:11;44.17;;;26.45;;
21517;SDS011;61765;45.794;24.150;2022-11-15T17:08:20;43.67;;;26.95;;
21517;SDS011;61765;45.794;24.150;2022-11-15T17:16:26;40.42;;;24.45;;
21517;SDS011;61765;45.794;24.150;2022-11-15T17:24:34;45.80;;;28.98;;
21517;SDS011;61765;45.794;24.150;2022-11-15T17:32:40;46.17;;;29.65;;
21517;SDS011;61765;45.794;24.150;2022-11-15T17:40:48;45.53;;;28.15;;
21517;SDS011;61765;45.794;24.150;2022-11-15T17:49:03;48.45;;;29.27;;
21517;SDS011;61765;45.794;24.150;2022-11-15T17:57:11;46.55;;;28.40;;
21517;SDS011;61765;45.794;24.150;2022-11-15T18:05:17;53.65;;;31.80;;
21517;SDS011;61765;45.794;24.150;2022-11-15T18:13:25;48.40;;;30.85;;
21517;SDS011;61765;45.794;24.150;2022-11-15T18:21:31;48.45;;;28.77;;
21517;SDS011;61765;45.794;24.150;2022-11-15T18:29:59;50.97;;;31.77;;
21517;SDS011;61765;45.794;24.150;2022-11-15T18:38:05;46.00;;;27.83;;
21517;SDS011;61765;45.794;24.150;2022-11-15T18:46:14;42.08;;;26.52;;
21517;SDS011;61765;45.794;24.150;2022-11-15T18:54:21;43.60;;;26.75;;
21517;SDS011;61765;45.794;24.150;2022-11-15T19:02:35;44.75;;;28.42;;
21517;SDS011;61765;45.794;24.150;2022-11-15T19:10:40;52.13;;;29.27;;
21517;SDS011;61765;45.794;24.150;2022-11-15T19:18:49;43.00;;;28.00;;
21517;SDS011;61765;45.794;24.150;2022-11-15T19:26:57;39.28;;;24.27;;
21517;SDS011;61765;45.794;24.150;2022-11-15T19:35:05;42.38;;;26.17;;
21517;SDS011;61765;45.794;24.150;2022-11-15T19:43:11;53.47;;;34.35;;
21517;SDS011;61765;45.794;24.150;2022-11-15T19:51:20;52.13;;;32.75;;
21517;SDS011;61765;45.794;24.150;2022-11-15T19:59:28;43.92;;;26.40;;
21517;SDS011;61765;45.794;24.150;2022-11-15T20:07:36;42.88;;;26.73;;
21517;SDS011;61765;45.794;24.150;2022-11-15T20:15:41;45.38;;;27.35;;
21517;SDS011;61765;45.794;24.150;2022-11-15T20:23:49;48.50;;;28.80;;
21517;SDS011;61765;45.794;24.150;2022-11-15T20:31:56;53.55;;;31.15;;
21517;SDS011;61765;45.794;24.150;2022-11-15T20:40:04;63.63;;;36.30;;
21517;SDS011;61765;45.794;24.150;2022-11-15T20:48:11;65.47;;;37.83;;
21517;SDS011;61765;45.794;24.150;2022-11-15T20:56:20;73.97;;;40.30;;
21517;SDS011;61765;45.794;24.150;2022-11-15T21:04:26;57.97;;;36.97;;
21517;SDS011;61765;45.794;24.150;2022-11-15T21:12:34;61.50;;;34.70;;
21517;SDS011;61765;45.794;24.150;2022-11-15T21:20:39;59.75;;;34.67;;
21517;SDS011;61765;45.794;24.150;2022-11-15T21:28:48;59.90;;;34.60;;
21517;SDS011;61765;45.794;24.150;2022-11-15T21:36:53;55.25;;;33.03;;
21517;SDS011;61765;45.794;24.150;2022-11-15T21:45:02;66.22;;;38.05;;
21517;SDS011;61765;45.794;24.150;2022-11-15T21:53:08;55.97;;;33.67;;
21517;SDS011;61765;45.794;24.150;2022-11-15T22:01:16;44.30;;;25.98;;
21517;SDS011;61765;45.794;24.150;2022-11-15T22:09:34;44.90;;;26.38;;
21517;SDS011;61765;45.794;24.150;2022-11-15T22:17:42;42.50;;;24.73;;
21517;SDS011;61765;45.794;24.150;2022-11-15T22:31:15;41.42;;;24.42;;
21517;SDS011;61765;45.794;24.150;2022-11-15T22:39:20;39.83;;;25.42;;
21517;SDS011;61765;45.794;24.150;2022-11-15T22:47:28;39.22;;;24.98;;
21517;SDS011;61765;45.794;24.150;2022-11-15T22:55:34;36.78;;;22.88;;
21517;SDS011;61765;45.794;24.150;2022-11-15T23:03:44;38.97;;;24.95;;
21517;SDS011;61765;45.794;24.150;2022-11-15T23:11:50;43.05;;;26.45;;
21517;SDS011;61765;45.794;24.150;2022-11-15T23:20:11;46.45;;;27.10;;
21517;SDS011;61765;45.794;24.150;2022-11-15T23:28:36;48.40;;;28.38;;
21517;SDS011;61765;45.794;24.150;2022-11-15T23:36:45;43.90;;;26.90;;
21517;SDS011;61765;45.794;24.150;2022-11-15T23:44:50;42.58;;;25.55;;
21517;SDS011;61765;45.794;24.150;2022-11-15T23:52:58;51.42;;;29.10;;
